Time;durP1;ratioP1;P1;durP2;ratioP2;P2;SDS_P1;SDS_P2;PMS_P1;PMS_P2;Temp;Humidity;BMP_temperature;BMP_pressure;BME280_temperature;BME280_humidity;BME280_pressure;Samples;Min_cycle;Max_cycle;Signal;HPM_P1;HPM_P2
2023/06/25 00:01:12;;;;;;;3.15;1.92;;;21.10;96.10;;;21.58;92.36;101376.25;5196228;28;20049;-48
2023/06/25 00:03:46;;;;;;;3.38;1.83;;;21.10;96.20;;;21.57;92.61;101384.19;5195517;28;20049;-47
2023/06/25 00:06:19;;;;;;;3.85;2.03;;;21.00;96.40;;;21.55;93.45;101383.31;5199476;28;20427;-47
2023/06/25 00:08:51;;;;;;;3.45;2.10;;;21.00;96.80;;;21.53;93.91;101372.72;5180207;28;20052;-49
2023/06/25 00:11:24;;;;;;;3.40;2.03;;;21.00;97.10;;;21.52;93.88;101376.25;5186829;28;20414;-48
2023/06/25 00:13:56;;;;;;;4.13;2.10;;;21.00;97.20;;;21.51;93.38;101373.59;5195585;28;20056;-47
2023/06/25 00:16:29;;;;;;;3.40;2.08;;;20.90;97.20;;;21.49;92.86;101375.38;5202771;28;20517;-47
2023/06/25 00:19:03;;;;;;;3.53;2.08;;;20.90;97.10;;;21.45;92.55;101368.28;5195461;28;20095;-47
2023/06/25 00:21:37;;;;;;;4.13;2.30;;;20.90;97.10;;;21.42;92.21;101357.69;5183268;28;20049;-47
2023/06/25 00:24:09;;;;;;;4.20;2.40;;;20.90;97.10;;;21.39;92.71;101364.78;5183018;28;20065;-47
2023/06/25 00:26:46;;;;;;;3.88;2.10;;;20.80;97.20;;;21.34;93.71;101355.94;5186632;28;20052;-47
2023/06/25 00:29:19;;;;;;;3.63;2.30;;;20.80;97.60;;;21.30;94.54;101351.50;5201958;28;20406;-48
2023/06/25 00:31:51;;;;;;;3.35;2.10;;;20.80;98.10;;;21.26;95.42;101351.50;5179742;28;20514;-48
2023/06/25 00:34:25;;;;;;;4.03;2.15;;;20.70;98.50;;;21.24;95.87;101345.28;5203168;28;20541;-48
2023/06/25 00:36:58;;;;;;;4.03;2.50;;;20.70;98.80;;;21.23;96.34;101356.78;5182392;28;20045;-47
2023/06/25 00:39:31;;;;;;;4.05;2.55;;;20.70;99.10;;;21.18;97.27;101347.94;5183224;28;20161;-48
2023/06/25 00:42:03;;;;;;;4.00;2.20;;;20.70;99.60;;;21.12;98.07;101343.50;5202570;28;20060;-47
2023/06/25 00:44:40;;;;;;;3.70;2.30;;;20.60;99.90;;;21.07;98.66;101340.88;5199564;28;20045;-47
2023/06/25 00:47:16;;;;;;;4.32;2.10;;;20.60;99.90;;;21.02;99.31;101345.28;5191655;28;20049;-47
2023/06/25 00:49:50;;;;;;;3.78;2.13;;;20.50;99.90;;;20.99;99.51;101347.91;5178801;28;20061;-47
2023/06/25 00:52:22;;;;;;;3.65;2.30;;;20.40;99.90;;;20.96;99.40;101347.94;5186077;28;20046;-47
2023/06/25 00:54:55;;;;;;;4.47;2.70;;;20.40;99.90;;;20.93;99.78;101347.03;5186286;28;20041;-47
2023/06/25 00:57:29;;;;;;;3.25;2.20;;;20.40;99.90;;;20.90;99.32;101353.22;5191564;28;20137;-47
2023/06/25 01:00:04;;;;;;;2.67;1.83;;;20.40;99.90;;;20.85;99.66;101353.22;5202340;28;20048;-47
2023/06/25 01:02:46;;;;;;;4.35;2.42;;;20.30;99.90;;;20.84;99.50;101348.78;5201383;28;20115;-47
2023/06/25 01:05:24;;;;;;;3.60;2.15;;;20.30;99.90;;;20.86;99.66;101347.06;5199078;28;20053;-47
2023/06/25 01:08:00;;;;;;;3.83;2.28;;;20.30;99.90;;;20.86;98.77;101347.06;5181691;28;20414;-48
2023/06/25 01:10:32;;;;;;;4.25;2.58;;;20.30;99.90;;;20.86;98.42;101347.06;5197827;28;20064;-48
2023/06/25 01:13:08;;;;;;;4.80;2.97;;;20.30;99.90;;;20.85;97.68;101352.31;5188756;28;20041;-48
2023/06/25 01:15:41;;;;;;;4.22;2.70;;;20.30;99.90;;;20.81;97.09;101350.56;5203618;28;20056;-48
2023/06/25 01:18:13;;;;;;;4.82;2.88;;;20.30;99.90;;;20.78;96.91;101342.59;5194016;28;20054;-48
2023/06/25 01:20:51;;;;;;;4.97;2.60;;;20.30;99.90;;;20.75;97.24;101337.31;5185803;28;20049;-48
2023/06/25 01:23:25;;;;;;;3.88;2.55;;;20.20;99.90;;;20.70;97.85;101339.06;5199089;28;20057;-48
2023/06/25 01:25:57;;;;;;;5.15;2.70;;;20.20;99.90;;;20.67;98.42;101344.34;5181507;28;20046;-48
2023/06/25 01:28:30;;;;;;;4.47;2.67;;;20.20;99.90;;;20.64;98.21;101350.53;5191658;28;20352;-48
2023/06/25 01:31:07;;;;;;;4.63;2.70;;;20.20;99.90;;;20.64;97.36;101339.94;5187384;28;20046;-48
2023/06/25 01:33:39;;;;;;;5.00;2.55;;;20.10;99.90;;;20.64;97.54;101345.22;5183050;28;20042;-48
2023/06/25 01:36:12;;;;;;;3.95;2.33;;;20.10;99.90;;;20.63;97.38;101343.47;5176778;28;20065;-47
2023/06/25 01:38:46;;;;;;;4.05;2.47;;;20.10;99.90;;;20.61;97.18;101334.66;5201288;28;20494;-48
2023/06/25 01:41:18;;;;;;;4.63;2.90;;;20.10;99.90;;;20.57;97.37;101339.03;5201351;28;20046;-48
2023/06/25 01:43:51;;;;;;;5.88;2.83;;;20.10;99.90;;;20.54;97.39;101338.16;5173526;28;20057;-48
2023/06/25 01:46:23;;;;;;;6.07;3.20;;;20.10;99.90;;;20.50;97.51;101331.06;5194091;28;20060;-48
2023/06/25 01:48:55;;;;;;;5.63;3.42;;;20.00;99.90;;;20.48;98.00;101328.44;5197676;28;20524;-48
2023/06/25 01:51:28;;;;;;;4.68;2.80;;;20.00;99.90;;;20.45;99.13;101330.19;5199783;28;20049;-48
2023/06/25 01:54:02;;;;;;;4.53;2.85;;;20.00;99.90;;;20.41;99.12;101329.28;5182743;28;20046;-47
2023/06/25 01:56:34;;;;;;;5.43;2.97;;;20.00;99.90;;;20.40;99.26;101326.59;5182672;28;20060;-47
2023/06/25 01:59:07;;;;;;;5.82;3.03;;;19.90;99.90;;;20.38;99.12;101331.88;5197495;28;20061;-48
2023/06/25 02:01:39;;;;;;;7.53;3.40;;;19.90;99.90;;;20.38;99.16;101328.34;5190325;28;20055;-48
2023/06/25 02:04:11;;;;;;;5.70;3.13;;;19.90;99.90;;;20.35;98.95;101320.41;5201505;28;20049;-47
2023/06/25 02:06:44;;;;;;;5.15;2.85;;;19.90;99.90;;;20.33;99.39;101320.38;5196772;28;20411;-48
2023/06/25 02:09:18;;;;;;;5.85;3.20;;;19.80;99.90;;;20.31;99.92;101325.69;5196273;28;20507;-47
2023/06/25 02:11:50;;;;;;;5.60;2.85;;;19.80;99.90;;;20.30;99.89;101317.75;5172923;28;20048;-48
2023/06/25 02:14:23;;;;;;;6.47;3.40;;;19.80;99.90;;;20.30;100.00;101310.69;5201589;28;20049;-48
2023/06/25 02:16:55;;;;;;;6.10;3.33;;;19.80;99.90;;;20.31;100.00;101306.28;5188739;28;20057;-48
2023/06/25 02:19:28;;;;;;;5.20;3.05;;;19.80;99.90;;;20.32;100.00;101305.38;5196830;28;20049;-48
2023/06/25 02:22:00;;;;;;;5.10;3.58;;;19.80;99.90;;;20.32;100.00;101306.28;5194186;28;20499;-48
2023/06/25 02:24:34;;;;;;;6.90;3.78;;;19.80;99.90;;;20.28;100.00;101299.22;5182288;28;20046;-48
2023/06/25 02:27:07;;;;;;;6.22;3.40;;;19.80;99.90;;;20.24;100.00;101296.56;5188604;28;20053;-48
2023/06/25 02:29:40;;;;;;;6.85;3.22;;;19.80;99.90;;;20.23;100.00;101300.09;5200870;28;20494;-48
2023/06/25 02:32:13;;;;;;;5.93;3.60;;;19.80;99.90;;;20.23;100.00;101300.09;5192989;28;20080;-48
2023/06/25 02:34:45;;;;;;;6.60;3.50;;;19.80;99.90;;;20.24;100.00;101291.25;5184699;28;20045;-48
2023/06/25 02:37:18;;;;;;;6.65;3.20;;;19.80;99.90;;;20.24;100.00;101289.50;5196761;28;20050;-48
2023/06/25 02:39:51;;;;;;;4.85;3.17;;;19.80;99.90;;;20.19;100.00;101288.59;5196807;28;20491;-48
2023/06/25 02:42:24;;;;;;;5.93;3.25;;;19.70;99.90;;;20.15;100.00;101294.75;5192857;28;20068;-48
2023/06/25 02:44:57;;;;;;;4.43;3.13;;;19.70;99.90;;;20.11;100.00;101292.97;5173479;28;20056;-47
2023/06/25 02:47:33;;;;;;;4.70;3.25;;;19.70;99.90;;;20.06;100.00;101285.00;5196301;28;20392;-48
2023/06/25 02:50:07;;;;;;;4.50;3.05;;;19.60;99.90;;;20.02;100.00;101287.66;5186841;28;20050;-48
2023/06/25 02:52:41;;;;;;;4.15;2.72;;;19.60;99.90;;;19.98;100.00;101283.22;5178753;28;20510;-48
2023/06/25 02:55:15;;;;;;;5.00;2.80;;;19.50;99.90;;;19.94;100.00;101292.00;5196956;28;20041;-48
2023/06/25 02:57:47;;;;;;;5.88;3.17;;;19.50;99.90;;;19.90;100.00;101283.19;5188378;28;20046;-47
2023/06/25 03:00:20;;;;;;;4.28;2.78;;;19.40;99.90;;;19.88;100.00;101287.56;5179977;28;20053;-48
2023/06/25 03:02:52;;;;;;;5.60;3.20;;;19.40;99.90;;;19.85;100.00;101281.41;5184013;28;20497;-48
2023/06/25 03:05:25;;;;;;;4.38;2.90;;;19.40;99.90;;;19.84;100.00;101284.94;5199533;28;20495;-48
2023/06/25 03:07:58;;;;;;;5.88;3.13;;;19.40;99.90;;;19.82;100.00;101289.31;5200080;28;20131;-48
2023/06/25 03:10:33;;;;;;;5.80;3.30;;;19.30;99.90;;;19.78;100.00;101286.66;5184133;28;20053;-47
2023/06/25 03:13:05;;;;;;;4.80;3.05;;;19.30;99.90;;;19.76;100.00;101287.56;5196448;28;20044;-48
2023/06/25 03:15:38;;;;;;;5.15;3.15;;;19.30;99.90;;;19.72;100.00;101289.28;5177649;28;20338;-47
2023/06/25 03:18:11;;;;;;;5.03;2.97;;;19.30;99.90;;;19.67;100.00;101283.06;5178016;28;20053;-48
2023/06/25 03:20:43;;;;;;;4.30;2.83;;;19.20;99.90;;;19.66;100.00;101278.66;5189824;28;20048;-48
2023/06/25 03:23:16;;;;;;;5.85;2.95;;;19.20;99.90;;;19.62;100.00;101281.28;5192335;28;20060;-48
2023/06/25 03:25:52;;;;;;;4.70;2.95;;;19.20;99.90;;;19.61;100.00;101285.69;5183802;28;20088;-48
2023/06/25 03:28:31;;;;;;;5.82;2.88;;;19.10;99.90;;;19.60;100.00;101283.91;5184071;28;20068;-48
2023/06/25 03:31:03;;;;;;;5.43;3.33;;;19.10;99.90;;;19.59;100.00;101287.44;5196014;28;20041;-48
2023/06/25 03:33:43;;;;;;;5.70;2.95;;;19.10;99.90;;;19.55;100.00;101282.97;5185308;28;20449;-48
2023/06/25 03:36:15;;;;;;;5.38;3.42;;;19.10;99.90;;;19.51;100.00;101281.19;5187954;28;20124;-48
2023/06/25 03:38:48;;;;;;;4.78;3.17;;;19.10;99.90;;;19.47;100.00;101284.69;5192230;28;20046;-48
2023/06/25 03:41:25;;;;;;;5.63;3.30;;;19.00;99.90;;;19.45;100.00;101286.44;5179010;28;20052;-47
2023/06/25 03:43:58;;;;;;;4.47;2.92;;;19.00;99.90;;;19.42;100.00;101281.13;5191891;28;20100;-47
2023/06/25 03:46:30;;;;;;;4.72;3.05;;;19.00;99.90;;;19.39;100.00;101275.84;5200093;28;20053;-48
2023/06/25 03:49:03;;;;;;;3.67;2.95;;;19.00;99.90;;;19.37;100.00;101277.59;5199852;28;20045;-47
2023/06/25 03:51:41;;;;;;;5.18;3.20;;;18.90;99.90;;;19.35;100.00;101272.28;5199625;28;20503;-48
2023/06/25 03:54:14;;;;;;;5.47;3.10;;;18.90;99.90;;;19.35;100.00;101274.03;5191918;28;20137;-47
2023/06/25 03:56:48;;;;;;;4.95;3.38;;;18.90;99.90;;;19.36;100.00;101273.16;5190216;28;20057;-48
2023/06/25 03:59:20;;;;;;;5.57;3.15;;;18.90;99.90;;;19.36;100.00;101273.16;5178667;28;20056;-48
2023/06/25 04:01:54;;;;;;;5.95;3.03;;;18.90;99.90;;;19.37;100.00;101272.31;5203216;28;20037;-48
2023/06/25 04:04:27;;;;;;;5.53;3.30;;;18.90;99.90;;;19.38;100.00;101276.72;5203971;28;20053;-49
2023/06/25 04:07:00;;;;;;;5.32;3.03;;;18.90;99.90;;;19.39;100.00;101278.47;5182965;28;20414;-48
2023/06/25 04:09:32;;;;;;;5.60;3.20;;;18.90;99.90;;;19.41;100.00;101279.38;5191625;28;20422;-48
2023/06/25 04:12:08;;;;;;;5.93;3.40;;;19.00;99.90;;;19.43;100.00;101272.31;5198524;28;20481;-48
2023/06/25 04:14:42;;;;;;;7.97;3.38;;;18.90;99.90;;;19.45;100.00;101275.88;5197992;28;20041;-48
2023/06/25 04:17:18;;;;;;;4.38;2.95;;;19.00;99.90;;;19.47;100.00;101277.63;5195226;28;20050;-48
2023/06/25 04:19:50;;;;;;;6.05;3.38;;;19.00;99.90;;;19.53;100.00;101275.03;5184293;28;20050;-48
2023/06/25 04:22:22;;;;;;;5.43;3.45;;;19.00;99.90;;;19.59;100.00;101274.22;5194625;28;20052;-48
2023/06/25 04:24:56;;;;;;;4.97;3.13;;;19.10;99.90;;;19.65;100.00;101274.25;5203559;28;20045;-48
2023/06/25 04:27:29;;;;;;;5.80;3.42;;;19.20;99.90;;;19.70;100.00;101276.94;5186878;28;20480;-48
2023/06/25 04:30:02;;;;;;;5.43;3.42;;;19.20;99.90;;;19.74;100.00;101276.94;5195671;28;20046;-48
2023/06/25 04:32:35;;;;;;;5.47;3.67;;;19.30;99.90;;;19.81;100.00;101280.50;5185995;28;20495;-49
2023/06/25 04:35:09;;;;;;;5.32;3.63;;;19.30;99.90;;;19.86;100.00;101288.47;5187006;28;20060;-48
2023/06/25 04:37:47;;;;;;;5.32;3.38;;;19.40;99.90;;;19.89;100.00;101289.38;5194743;28;20049;-48
2023/06/25 04:40:20;;;;;;;7.38;4.60;;;19.40;99.90;;;19.94;100.00;101289.38;5203058;28;20045;-48
2023/06/25 04:42:54;;;;;;;7.18;4.18;;;19.50;99.90;;;19.94;100.00;101281.44;5203397;28;20073;-48
2023/06/25 04:45:28;;;;;;;7.43;4.22;;;19.50;99.90;;;19.98;100.00;101276.16;5203267;28;20525;-49
2023/06/25 04:48:00;;;;;;;7.55;4.43;;;19.50;99.90;;;20.09;100.00;101281.50;5186572;28;20076;-49
2023/06/25 04:50:33;;;;;;;6.88;3.90;;;19.60;99.90;;;20.25;100.00;101277.13;5186333;28;20049;-48
2023/06/25 04:53:05;;;;;;;7.13;3.95;;;19.70;99.90;;;20.48;100.00;101279.88;5186435;28;20052;-48
2023/06/25 04:55:38;;;;;;;8.93;4.72;;;20.00;99.90;;;20.78;100.00;101274.59;5183043;28;20046;-48
2023/06/25 04:58:11;;;;;;;6.50;4.28;;;20.20;99.90;;;21.12;100.00;101286.06;5189195;28;20060;-49
2023/06/25 05:00:44;;;;;;;6.60;4.15;;;20.50;99.90;;;21.48;100.00;101283.41;5192059;28;20427;-49
2023/06/25 05:03:16;;;;;;;7.72;4.90;;;20.80;99.90;;;21.84;100.00;101280.66;5186358;28;20061;-49
2023/06/25 05:05:49;;;;;;;6.28;4.50;;;21.20;99.90;;;22.21;99.63;101284.03;5183930;28;20068;-49
2023/06/25 05:08:21;;;;;;;6.15;3.92;;;21.50;99.90;;;22.55;98.48;101283.84;5181872;28;20530;-49
2023/06/25 05:10:53;;;;;;;8.82;4.50;;;21.80;99.90;;;22.86;96.77;101286.28;5199972;28;20046;-50
2023/06/25 05:13:32;;;;;;;7.43;4.40;;;22.10;99.90;;;23.12;93.86;101286.09;5186088;28;20426;-50
2023/06/25 05:16:04;;;;;;;7.47;4.18;;;22.30;99.90;;;23.25;91.75;101285.06;5186320;28;20133;-50
2023/06/25 05:18:39;;;;;;;7.05;4.07;;;22.60;99.90;;;23.41;91.13;101288.44;5186105;28;20049;-49
2023/06/25 05:21:11;;;;;;;7.68;4.65;;;22.70;99.90;;;23.64;90.22;101290.91;5202951;28;20053;-49
2023/06/25 05:23:58;;;;;;;7.40;4.47;;;22.90;99.90;;;23.93;88.63;101288.81;5183964;28;20042;-49
2023/06/25 05:26:30;;;;;;;7.60;3.95;;;23.10;99.90;;;24.21;87.43;101296.44;5165973;28;20057;-49
2023/06/25 05:29:05;;;;;;;6.55;3.97;;;23.40;99.90;;;24.41;86.29;101298.84;5165808;28;20054;-49
2023/06/25 05:31:40;;;;;;;7.75;4.43;;;23.60;99.60;;;24.54;84.97;101301.31;5178863;28;20037;-49
2023/06/25 05:34:13;;;;;;;7.85;4.22;;;23.70;99.00;;;24.72;84.14;101292.16;5202389;28;20068;-49
2023/06/25 05:36:45;;;;;;;7.13;3.83;;;23.90;98.70;;;24.91;83.29;101287.41;5202456;28;20269;-49
2023/06/25 05:39:18;;;;;;;6.75;4.22;;;24.10;98.20;;;25.12;82.53;101286.19;5202726;28;20049;-49
2023/06/25 05:41:53;;;;;;;7.80;4.40;;;24.30;97.90;;;25.25;81.02;101286.88;5202307;28;20045;-50
2023/06/25 05:44:27;;;;;;;7.35;4.28;;;24.50;97.10;;;25.37;80.90;101281.31;5202428;28;20533;-50
2023/06/25 05:47:00;;;;;;;6.25;4.00;;;24.60;97.00;;;25.54;80.39;101284.50;5202347;28;20057;-49
2023/06/25 05:49:32;;;;;;;8.75;4.03;;;24.70;96.70;;;25.69;79.43;101289.56;5202176;28;20057;-49
2023/06/25 05:52:06;;;;;;;7.00;4.80;;;24.90;96.30;;;25.91;78.30;101286.50;5202023;28;20051;-50
2023/06/25 05:54:38;;;;;;;7.40;4.25;;;25.00;95.70;;;26.14;77.76;101281.50;5202173;28;20556;-50
2023/06/25 05:57:11;;;;;;;6.10;3.97;;;25.20;95.40;;;26.27;76.33;101286.59;5202010;28;20052;-50
2023/06/25 05:59:45;;;;;;;6.32;3.95;;;25.40;94.80;;;26.43;75.75;101294.28;5202458;28;20069;-50
2023/06/25 06:02:18;;;;;;;7.63;4.15;;;25.50;94.40;;;26.58;75.41;101292.16;5202025;28;20503;-49
2023/06/25 06:04:50;;;;;;;9.07;4.22;;;25.70;94.10;;;26.74;74.97;101277.50;5201760;28;20057;-49
2023/06/25 06:07:22;;;;;;;7.18;4.20;;;25.80;93.80;;;26.88;75.34;101286.06;5202339;28;20053;-48
2023/06/25 06:09:55;;;;;;;5.88;3.83;;;26.00;93.80;;;27.04;73.74;101292.78;5202345;28;20053;-49
2023/06/25 06:12:27;;;;;;;8.32;4.10;;;26.10;93.10;;;27.08;73.32;101295.44;5202119;28;20037;-48
2023/06/25 06:15:02;;;;;;;7.82;3.92;;;26.20;92.70;;;27.27;72.63;101289.56;5186020;28;20061;-48
2023/06/25 06:17:34;;;;;;;6.35;4.15;;;26.30;92.30;;;27.36;71.89;101290.22;5201963;28;20495;-50
2023/06/25 06:20:08;;;;;;;6.18;3.90;;;26.50;91.80;;;27.49;71.40;101291.63;5185028;28;20065;-49
2023/06/25 06:22:40;;;;;;;6.90;3.83;;;26.60;91.50;;;27.58;70.36;101288.69;5202155;28;20108;-50
2023/06/25 06:25:13;;;;;;;6.72;4.32;;;26.70;90.90;;;27.67;70.44;101292.94;5201719;28;20052;-50
2023/06/25 06:27:45;;;;;;;6.65;3.95;;;26.70;90.80;;;27.80;70.17;101284.53;5201559;28;20059;-50
2023/06/25 06:30:19;;;;;;;6.25;3.90;;;26.80;90.60;;;27.96;69.48;101289.44;5201586;28;20099;-50
2023/06/25 06:32:52;;;;;;;5.78;3.97;;;27.00;90.20;;;27.95;69.12;101293.03;5201279;28;20038;-49
2023/06/25 06:35:24;;;;;;;7.10;3.95;;;27.00;89.80;;;28.05;69.16;101284.69;5201492;28;20503;-50
2023/06/25 06:38:00;;;;;;;5.82;3.90;;;27.10;89.70;;;28.10;68.92;101292.56;5201531;28;20054;-49
2023/06/25 06:40:32;;;;;;;6.70;3.70;;;27.20;89.30;;;28.08;68.96;101294.44;5201524;28;20054;-48
2023/06/25 06:43:04;;;;;;;6.13;4.13;;;27.20;88.80;;;28.06;68.78;101285.56;5201421;28;20049;-49
2023/06/25 06:45:38;;;;;;;5.35;3.90;;;27.20;89.10;;;27.98;69.17;101287.63;5201386;28;20049;-48
2023/06/25 06:48:10;;;;;;;6.75;4.28;;;27.10;88.40;;;27.79;69.25;101290.81;5192088;28;20271;-48
2023/06/25 06:50:43;;;;;;;7.22;3.95;;;27.10;88.00;;;27.48;69.54;101289.88;5188794;28;20060;-49
2023/06/25 06:53:15;;;;;;;6.80;3.67;;;26.80;87.80;;;27.31;70.67;101285.84;5191101;28;120407;-49
2023/06/25 06:55:48;;;;;;;5.55;3.70;;;26.70;88.70;;;27.28;71.47;101279.72;5203287;28;20053;-49
2023/06/25 06:58:20;;;;;;;6.10;3.60;;;26.60;89.30;;;27.36;72.06;101285.75;5205423;28;20442;-49
2023/06/25 07:00:54;;;;;;;5.80;3.80;;;26.60;90.00;;;27.49;72.29;101288.97;5210620;28;20048;-48
2023/06/25 07:03:27;;;;;;;5.53;3.60;;;26.60;90.20;;;27.51;70.88;101282.63;5202233;28;20529;-49
2023/06/25 07:05:59;;;;;;;6.35;3.58;;;26.70;89.50;;;27.34;70.52;101279.56;5193151;28;20046;-49
2023/06/25 07:08:31;;;;;;;4.95;3.72;;;26.60;88.80;;;27.35;71.62;101278.63;5201125;28;20069;-49
2023/06/25 07:11:04;;;;;;;5.80;3.70;;;26.60;89.70;;;27.49;71.44;101278.25;5201093;28;20047;-49
2023/06/25 07:13:36;;;;;;;5.72;3.60;;;26.70;89.80;;;27.69;70.67;101283.09;5204488;28;20080;-48
2023/06/25 07:16:10;;;;;;;5.30;3.47;;;26.70;89.20;;;27.88;69.57;101287.00;5201129;28;20049;-49
2023/06/25 07:18:43;;;;;;;5.35;3.72;;;26.90;88.50;;;27.97;68.81;101278.66;5201306;28;20522;-48
2023/06/25 07:21:16;;;;;;;6.28;4.03;;;27.00;87.50;;;28.12;68.95;101275.53;5213676;28;20056;-49
2023/06/25 07:23:48;;;;;;;5.70;3.80;;;27.10;87.50;;;28.28;68.96;101275.06;5204950;28;20050;-49
2023/06/25 07:26:22;;;;;;;4.90;3.53;;;27.20;87.70;;;28.36;68.64;101279.31;5205021;28;20045;-49
2023/06/25 07:28:54;;;;;;;6.10;3.60;;;27.30;87.10;;;28.49;67.94;101273.53;5204955;28;20057;-50
2023/06/25 07:31:28;;;;;;;5.43;3.80;;;27.50;86.80;;;28.64;67.23;101263.22;5221780;28;20049;-48
2023/06/25 07:34:00;;;;;;;6.68;3.70;;;27.60;86.00;;;28.82;67.20;101267.09;5205061;28;20548;-47
2023/06/25 07:36:32;;;;;;;5.68;3.80;;;27.80;86.00;;;28.88;66.39;101266.84;5204764;28;20056;-48
2023/06/25 07:39:05;;;;;;;5.35;3.60;;;27.80;84.90;;;29.04;66.58;101266.38;5204612;28;20052;-48
2023/06/25 07:41:38;;;;;;;6.35;3.75;;;27.90;85.10;;;29.18;65.28;101259.59;5204353;28;20064;-48
2023/06/25 07:44:10;;;;;;;5.55;3.70;;;28.10;84.00;;;29.36;64.94;101270.63;5221397;28;20053;-48
2023/06/25 07:46:44;;;;;;;5.72;3.63;;;28.20;83.40;;;29.48;65.11;101266.63;5204886;28;20038;-48
2023/06/25 07:49:17;;;;;;;5.32;3.40;;;28.30;83.30;;;29.70;65.00;101264.94;5204515;28;20049;-49
2023/06/25 07:51:51;;;;;;;5.35;3.40;;;28.50;83.30;;;29.94;64.76;101261.31;5204295;28;20057;-49
2023/06/25 07:54:23;;;;;;;5.82;3.90;;;28.70;83.00;;;30.14;63.73;101262.41;5204526;28;20076;-48
2023/06/25 07:56:56;;;;;;;5.72;3.53;;;28.90;82.80;;;30.31;63.17;101261.72;5204399;28;20053;-49
2023/06/25 07:59:28;;;;;;;4.93;3.80;;;29.00;81.40;;;30.45;61.75;101257.56;5204360;28;20059;-49
2023/06/25 08:02:02;;;;;;;5.97;3.58;;;29.10;80.10;;;30.54;60.96;101257.16;5204463;28;20060;-48
2023/06/25 08:04:35;;;;;;;4.60;3.45;;;29.20;79.20;;;30.71;61.09;101258.28;5204456;28;20144;-49
2023/06/25 08:07:08;;;;;;;4.88;3.65;;;29.30;79.00;;;30.94;61.40;101254.66;5203096;28;20076;-49
2023/06/25 08:09:41;;;;;;;5.22;3.45;;;29.50;79.60;;;31.22;60.36;101259.72;5203961;28;20461;-49
2023/06/25 08:12:15;;;;;;;4.65;3.33;;;29.70;78.80;;;31.71;59.68;101260.25;5204148;28;20045;-49
2023/06/25 08:14:47;;;;;;;5.30;3.30;;;30.00;78.50;;;32.09;58.29;101256.66;5220716;28;20102;-50
2023/06/25 08:17:21;;;;;;;4.25;3.17;;;30.20;77.00;;;32.61;57.33;101250.59;5217877;28;20037;-49
2023/06/25 08:19:53;;;;;;;5.10;3.30;;;30.60;76.40;;;33.08;56.26;101250.00;5207637;28;20457;-48
2023/06/25 08:22:26;;;;;;;5.72;3.33;;;30.80;75.40;;;33.55;55.51;101247.50;5199197;28;20048;-49
2023/06/25 08:24:58;;;;;;;5.20;2.92;;;31.10;74.60;;;34.19;54.72;101246.69;5201225;28;20057;-49
2023/06/25 08:27:30;;;;;;;4.72;3.30;;;31.40;74.50;;;34.88;53.20;101249.91;5220411;28;20050;-50
2023/06/25 08:30:03;;;;;;;3.78;2.83;;;31.80;73.40;;;35.64;50.85;101249.81;5220533;28;20056;-50
2023/06/25 08:32:37;;;;;;;4.88;3.10;;;32.20;71.10;;;36.48;48.27;101247.13;5220282;28;20042;-50
2023/06/25 08:35:09;;;;;;;3.75;2.70;;;32.60;68.90;;;37.23;46.75;101245.59;5214743;28;20053;-51
2023/06/25 08:37:42;;;;;;;4.38;2.97;;;33.00;67.00;;;38.16;46.01;101240.78;5194110;28;20064;-51
2023/06/25 08:40:14;;;;;;;4.38;3.08;;;33.60;66.30;;;39.15;45.62;101237.78;5202638;28;20544;-50
2023/06/25 08:42:47;;;;;;;3.47;2.80;;;34.20;66.30;;;39.81;42.44;101241.63;5212800;28;20483;-50
2023/06/25 08:45:19;;;;;;;3.97;2.75;;;34.70;62.30;;;40.67;40.76;101238.97;5191078;28;20046;-51
2023/06/25 08:47:56;;;;;;;4.32;2.97;;;35.50;60.10;;;41.35;38.79;101239.53;5199530;28;20351;-50
2023/06/25 08:50:31;;;;;;;3.92;2.70;;;36.40;56.90;;;41.40;37.72;101242.69;5182883;28;20074;-50
2023/06/25 08:53:03;;;;;;;3.45;2.72;;;36.80;54.40;;;41.65;36.49;101246.84;5199560;28;20149;-50
2023/06/25 08:55:37;;;;;;;3.55;2.40;;;37.30;52.80;;;42.27;36.60;101234.88;5199168;28;20122;-51
2023/06/25 08:58:10;;;;;;;3.03;2.72;;;37.90;52.10;;;42.71;35.03;101243.59;5200769;28;20049;-50
2023/06/25 09:00:42;;;;;;;3.30;2.60;;;38.30;50.40;;;42.80;34.62;101234.47;5182742;28;20813;-50
2023/06/25 09:03:17;;;;;;;3.20;2.58;;;38.50;49.70;;;43.14;35.02;101236.78;5182648;28;20042;-50
2023/06/25 09:05:54;;;;;;;3.75;2.80;;;38.70;49.80;;;43.16;33.17;101234.72;5183007;28;20053;-51
2023/06/25 09:08:29;;;;;;;3.70;2.90;;;38.80;47.80;;;43.43;33.35;101252.31;5199024;28;20050;-51
2023/06/25 09:11:01;;;;;;;2.67;2.30;;;39.00;47.70;;;43.62;32.76;101246.75;5182419;28;20053;-51
2023/06/25 09:13:34;;;;;;;3.45;2.55;;;39.20;47.20;;;43.67;32.68;101244.41;5199095;28;20499;-51
2023/06/25 09:16:08;;;;;;;4.15;2.50;;;39.30;46.80;;;43.79;32.65;101240.50;5200528;28;20049;-51
2023/06/25 09:18:42;;;;;;;3.75;2.55;;;39.40;46.60;;;43.95;32.73;101233.47;5202492;28;20048;-51
2023/06/25 09:21:15;;;;;;;3.58;2.75;;;39.60;46.80;;;44.07;32.12;101229.50;5198332;28;20419;-51
2023/06/25 09:23:51;;;;;;;2.95;2.30;;;39.60;46.30;;;43.74;31.90;101237.31;5200628;28;20045;-51
2023/06/25 09:26:24;;;;;;;3.95;2.58;;;39.50;45.60;;;43.41;31.92;101226.91;5204529;28;20077;-51
2023/06/25 09:28:59;;;;;;;3.67;2.58;;;39.50;45.30;;;42.72;32.27;101223.38;5202534;28;20053;-50
2023/06/25 09:31:35;;;;;;;3.30;2.80;;;39.20;45.20;;;42.17;32.93;101216.69;5200357;28;20064;-50
2023/06/25 09:34:15;;;;;;;3.47;2.55;;;39.00;45.80;;;41.46;34.30;101220.28;5219032;28;20051;-50
2023/06/25 09:36:47;;;;;;;3.20;2.67;;;38.60;46.10;;;40.72;34.59;101213.13;5201924;28;20056;-50
2023/06/25 09:39:20;;;;;;;3.63;2.63;;;38.20;46.20;;;39.88;35.50;101208.25;5216482;28;20116;-51
2023/06/25 09:41:54;;;;;;;3.28;2.40;;;37.80;46.50;;;38.90;37.03;101204.28;5195891;28;20133;-50
2023/06/25 09:44:28;;;;;;;3.40;2.60;;;37.20;47.20;;;37.98;38.30;101197.59;5198409;28;20054;-50
2023/06/25 09:47:07;;;;;;;4.38;2.67;;;36.60;48.30;;;37.31;39.62;101188.84;5181948;28;20054;-49
2023/06/25 09:49:42;;;;;;;3.15;2.58;;;36.00;49.00;;;36.83;40.37;101180.41;5198201;28;20057;-50
2023/06/25 09:52:16;;;;;;;3.70;2.70;;;35.60;49.50;;;36.42;40.07;101178.69;5198294;28;20053;-50
2023/06/25 09:54:50;;;;;;;3.22;2.60;;;35.20;49.50;;;35.82;39.98;101183.56;5198449;28;20050;-49
2023/06/25 09:57:25;;;;;;;3.88;2.70;;;34.80;49.20;;;35.28;40.35;101178.84;5198167;28;20049;-50
2023/06/25 09:59:58;;;;;;;4.95;3.22;;;34.30;49.20;;;34.92;40.13;101175.69;5206292;28;20057;-50
2023/06/25 10:02:31;;;;;;;3.97;2.75;;;34.00;49.10;;;34.73;40.73;101179.47;5202116;28;20052;-49
2023/06/25 10:05:05;;;;;;;3.70;2.38;;;33.80;49.60;;;34.73;41.41;101171.34;5201974;28;20060;-49
2023/06/25 10:07:38;;;;;;;3.53;2.70;;;33.60;50.10;;;34.84;41.80;101172.56;5218278;28;20041;-49
2023/06/25 10:10:21;;;;;;;5.57;2.92;;;33.60;50.60;;;34.79;41.19;101159.28;5203425;28;20049;-50
2023/06/25 10:12:54;;;;;;;3.72;2.90;;;33.60;50.20;;;34.71;42.07;101162.47;5198303;28;20399;-49
2023/06/25 10:15:31;;;;;;;4.07;2.97;;;33.60;51.30;;;34.75;42.19;101157.72;5218384;28;20056;-50
2023/06/25 10:18:05;;;;;;;4.03;2.83;;;33.60;50.90;;;34.83;42.43;101158.16;5201842;28;20107;-49
2023/06/25 10:20:45;;;;;;;3.60;2.67;;;33.60;51.40;;;34.94;41.43;101162.91;5201802;28;20050;-49
2023/06/25 10:23:23;;;;;;;4.45;2.78;;;33.60;50.50;;;34.89;41.38;101163.19;5193487;28;20562;-50
2023/06/25 10:25:57;;;;;;;4.47;2.80;;;33.60;50.30;;;34.60;41.08;101158.66;5201480;28;20073;-50
2023/06/25 10:28:31;;;;;;;3.92;2.80;;;33.50;49.90;;;34.61;41.73;101153.13;5204015;28;20069;-49
2023/06/25 10:31:13;;;;;;;3.70;2.72;;;33.50;50.40;;;34.67;42.29;101154.63;5180461;28;20049;-50
2023/06/25 10:33:46;;;;;;;3.42;2.70;;;33.50;50.90;;;34.39;41.35;101136.41;5198069;28;20143;-50
2023/06/25 10:36:26;;;;;;;3.35;2.55;;;33.30;50.10;;;34.39;41.60;101136.41;5189455;28;20045;-50